• Join FlightAware (Why Join?)
  • Login
  • US Flag 
10:40AM EDT


 

Airport Tracker/Info


-or-


 

Live Flight TrackerFlight Track Log ✈ UAL495 ✈ 01-May-2013 ✈ KDEN - KIAD

Flight Track Log - Related Links

Times and Time Zones

All times are in EDT time to prevent confusion due to time zone crossing. See the UAL495 flight status page for this flight to view local times or setup timezone preferences in your user account.

Time Position Orientation Groundspeed Altitude Reporting Facility
EDT Latitude Longitude Course Direction KTS MPH feet Rate Location/Type
01:24PM 39.9167 -104.6833 90° East 176 203 6,800  Level Denver TRACON
01:25PM 39.9500 -104.6167 57° Northeast 223 257 8,800 1,860 Climbing Denver TRACON
01:26PM 39.9500 -104.5167 90° East 278 320 10,600 1,380 Climbing Denver TRACON
01:27PM 39.8667 -104.0418 90° East  Level FlightAware Approximate
01:27PM 39.9333 -104.4167 102° East 328 377 11,600  Level Denver TRACON
01:28PM 39.8667 -103.8853 90° East  Level FlightAware Approximate
01:28PM 39.9344 -104.3217 89° East 356 410 13,000  Level Denver Center
01:29PM 39.8833 -103.7322 90° East  Level FlightAware Approximate
01:29PM 39.9222 -104.1897 97° East 366 421 15,700  Level Denver Center
01:30PM 39.9106 -104.0494 96° East 388 447 17,500 1,920 Climbing Denver Center
01:31PM 39.8981 -103.8928 96° East 402 463 19,700 1,740 Climbing Denver Center
01:32PM 39.8839 -103.7394 97° East 430 495 21,100 1,260 Climbing Denver Center
01:33PM 39.9011 -103.5725 82° East 459 528 22,400 1,200 Climbing Denver Center
01:34PM 39.9217 -103.3942 81° East 490 564 23,600 1,860 Climbing Denver Center
01:35PM 39.9414 -103.2161 82° East 491 565 26,300 1,980 Climbing Denver Center
01:36PM 39.9611 -103.0397 82° East 489 563 27,800 1,200 Climbing Denver Center
01:37PM 39.9811 -102.8586 82° East 500 575 28,800 720 Climbing Denver Center
01:38PM 40.0044 -102.6414 82° East 513 590 29,300 780 Climbing Denver Center
01:39PM 40.0267 -102.4622 81° East 521 600 30,500 1,380 Climbing Denver Center
01:40PM 40.0431 -102.2808 83° East 525 604 32,200 1,200 Climbing Denver Center
01:41PM 40.0647 -102.0731 82° East 520 598 33,000 360 Climbing Denver Center
01:42PM 40.0831 -101.8914 82° East 526 605 33,000  Level Denver Center
01:43PM 40.1039 -101.6783 83° East 529 609 33,000  Level Denver Center
01:44PM 40.1211 -101.4972 83° East 528 608 33,000  Level Denver Center
01:45PM 40.1406 -101.2856 83° East 527 606 33,000  Level Denver Center
01:46PM 40.1567 -101.1025 83° East 531 611 33,000  Level Denver Center
01:47PM 40.1761 -100.8922 83° East 525 604 33,000  Level Denver Center
01:48PM 40.1933 -100.7119 83° East 525 604 33,000  Level Denver Center
01:49PM 40.2233 -100.5056 79° East 521 600 33,000  Level Denver Center
01:50PM 40.2622 -100.3300 74° East 526 605 33,000  Level Denver Center
01:51PM 40.3067 -100.1278 74° East 522 601 33,000  Level Denver Center
01:52PM 40.3444 -99.9553 74° East 517 595 33,000  Level Denver Center
01:53PM 40.3831 -99.7731 74° East 519 597 33,000  Level Denver Center
01:54PM 40.4214 -99.5919 74° East 517 595 33,000  Level Denver Center
01:56PM 40.4675 -99.3764 74° East 513 590 33,000  Level Denver Center
01:57PM 40.5131 -99.1600 74° East 515 593 33,000  Level Denver Center
01:57PM 40.5289 -99.0897 73° East 514 592 33,000  Level Minneapolis Center
01:58PM 40.5656 -98.9094 75° East 514 592 33,000  Level Minneapolis Center
01:59PM 40.6019 -98.7308 75° East 511 588 33,000  Level Minneapolis Center
02:00PM 40.6450 -98.5164 75° East 509 586 33,000  Level Minneapolis Center
02:01PM 40.6806 -98.3367 75° East 510 587 33,000  Level Minneapolis Center
02:02PM 40.7164 -98.1578 75° East 509 586 33,000  Level Minneapolis Center
02:03PM 40.7522 -97.9794 75° East 507 583 33,000  Level Minneapolis Center
02:04PM 40.7856 -97.8014 76° East 504 580 33,000  Level Minneapolis Center
02:05PM 40.8208 -97.6244 75° East 501 577 33,000  Level Minneapolis Center
02:06PM 40.8531 -97.4461 77° East 500 575 33,000  Level Minneapolis Center
02:08PM 40.8903 -97.2544 76° East 498 573 33,000  Level Minneapolis Center
02:09PM 40.9242 -97.0764 76° East 499 574 33,100 660 Climbing Minneapolis Center
02:10PM 40.9569 -96.9008 76° East 496 571 34,400 900 Climbing Minneapolis Center
02:11PM 40.9967 -96.6894 76° East 495 570 35,000 240 Climbing Minneapolis Center
02:12PM 41.0289 -96.5119 76° East 497 572 35,000  Level Minneapolis Center
02:13PM 41.0403 -96.3358 85° East 487 560 35,000  Level Minneapolis Center
02:14PM 41.0472 -96.1631 87° East 478 550 35,000  Level Minneapolis Center
02:15PM 41.0442 -95.9892 91° East 478 550 35,000  Level Minneapolis Center
02:16PM 41.0419 -95.8158 91° East 478 550 35,000  Level Minneapolis Center
02:17PM 41.0397 -95.6053 91° East 480 552 35,000  Level Minneapolis Center
02:18PM 41.0369 -95.4306 91° East 478 550 35,000  Level Minneapolis Center
02:19PM 41.0331 -95.2561 92° East 477 549 35,000  Level Minneapolis Center
02:20PM 41.0297 -95.0833 91° East 473 544 35,000  Level Minneapolis Center
02:21PM 41.0242 -94.9125 92° East 468 539 35,000  Level Minneapolis Center
02:22PM 41.0197 -94.7408 92° East 468 539 35,000  Level Minneapolis Center
02:23PM 41.0144 -94.5564 92° East 467 537 35,000  Level Minneapolis Center
02:24PM 41.0097 -94.3869 92° East 467 537 35,000  Level Minneapolis Center
02:25PM 41.0042 -94.2172 92° East 465 535 35,000  Level Minneapolis Center
02:26PM 40.9981 -94.0142 92° East 464 534 35,000  Level Minneapolis Center
02:27PM 40.9908 -93.8458 93° East 462 532 35,000  Level Minneapolis Center
02:28PM 40.9858 -93.6764 92° East 463 533 35,000  Level Minneapolis Center
02:29PM 40.9800 -93.5100 93° East 458 527 35,000  Level Minneapolis Center
02:30PM 40.9739 -93.3419 93° East 458 527 35,000  Level Minneapolis Center
02:31PM 40.9672 -93.1750 93° East 459 528 35,000  Level Minneapolis Center
02:32PM 40.9611 -93.0069 93° East 459 528 35,000  Level Minneapolis Center
02:33PM 40.9519 -92.8047 93° East 460 529 35,000  Level Minneapolis Center
02:34PM 40.9500 -92.7700 94° East 459 528 35,000  Level Chicago Center
02:35PM 40.9431 -92.6017 93° East 458 527 35,000  Level Chicago Center
02:36PM 40.9339 -92.3986 93° East 460 529 35,000  Level Chicago Center
02:37PM 40.9264 -92.2331 93° East 456 525 35,000  Level Chicago Center
02:38PM 40.9169 -92.0667 94° East 456 525 35,000  Level Chicago Center
02:39PM 40.9078 -91.8994 94° East 457 526 35,000  Level Chicago Center
02:40PM 40.8994 -91.7333 94° East 457 526 35,000  Level Chicago Center
02:41PM 40.8889 -91.5358 94° East 453 521 35,000  Level Chicago Center
02:42PM 40.8811 -91.3717 94° East 453 521 35,000  Level Chicago Center
02:43PM 40.8719 -91.2008 94° East 453 521 35,000  Level Chicago Center
02:44PM 40.8614 -91.0358 95° East 450 518 35,000  Level Chicago Center
02:45PM 40.8508 -90.8708 95° East 452 520 35,000  Level Chicago Center
02:46PM 40.8417 -90.7067 94° East 448 516 35,000  Level Chicago Center
02:47PM 40.8303 -90.5436 95° East 446 513 35,000  Level Chicago Center
02:48PM 40.8186 -90.3472 94° East 449 517 35,000  Level Chicago Center
02:49PM 40.8086 -90.1911 95° East 448 516 35,000  Level Chicago Center
02:50PM 40.7978 -90.0297 95° East 446 513 35,000  Level Chicago Center
02:51PM 40.7889 -89.8664 94° East 448 516 35,000  Level Chicago Center
02:52PM 40.7719 -89.6708 96° East 460 529 35,000  Level Chicago Center
02:53PM 40.7611 -89.5147 95° East 452 520 35,000  Level Chicago Center
02:54PM 40.7481 -89.3508 96° East 450 518 35,000  Level Chicago Center
02:55PM 40.7353 -89.1878 96° East 449 517 35,000  Level Chicago Center
02:56PM 40.7247 -89.0233 95° East 450 518 35,000  Level Chicago Center
02:57PM 40.7069 -88.8289 97° East 448 516 35,000  Level Chicago Center
02:58PM 40.6950 -88.6672 96° East 448 516 35,000  Level Chicago Center
02:59PM 40.6811 -88.5044 96° East 452 520 35,000  Level Chicago Center
03:00PM 40.6692 -88.3414 95° East 452 520 35,000 180 Level Chicago Center
03:01PM 40.6525 -88.1461 96° East 451 519 35,400 720 Climbing Chicago Center
03:03PM 40.6394 -87.9839 96° East 451 519 36,600 540 Climbing Chicago Center
03:04PM 40.6128 -87.6939 97° East 442 509 37,000 180 Climbing Indianapolis Center
03:05PM 40.6119 -87.6667 92° East 439 505 37,000  Level Chicago Center
03:06PM 40.5972 -87.5078 97° East 440 506 37,000  Level Chicago Center
03:07PM 40.5792 -87.3167 97° East 444 511 37,000  Level Chicago Center
03:08PM 40.5644 -87.1556 97° East 449 517 37,000  Level Chicago Center
03:09PM 40.5531 -86.9878 95° East 448 516 37,000  Level Chicago Center
03:10PM 40.5419 -86.8217 95° East 451 519 37,000  Level Chicago Center
03:11PM 40.5317 -86.6547 95° East 453 521 37,000  Level Chicago Center
03:12PM 40.5217 -86.4875 94° East 454 522 37,000  Level Chicago Center
03:13PM 40.5114 -86.3194 95° East 456 525 37,000  Level Chicago Center
03:14PM 40.4986 -86.1228 95° East 459 528 37,000  Level Chicago Center
03:15PM 40.4881 -85.9519 95° East 463 533 37,000  Level Chicago Center
03:16PM 40.4756 -85.7828 95° East 463 533 37,000  Level Chicago Center
03:17PM 40.4631 -85.6161 96° East 457 526 37,000  Level Chicago Center
03:18PM 40.4492 -85.4475 96° East 459 528 37,000  Level Chicago Center
03:19PM 40.4392 -85.2839 95° East 449 517 37,000  Level Chicago Center
03:20PM 40.4256 -85.1175 96° East 453 521 37,000  Level Chicago Center
03:21PM 40.4142 -84.9811 96° East 447 514 37,000  Level Indianapolis Center
03:22PM 40.4014 -84.8108 96° East 448 516 37,000  Level Indianapolis Center
03:23PM 40.3886 -84.6478 96° East 446 513 37,000  Level Indianapolis Center
03:24PM 40.3753 -84.4839 96° East 447 514 37,000  Level Indianapolis Center
03:25PM 40.3619 -84.3203 96° East 447 514 37,000  Level Indianapolis Center
03:26PM 40.3483 -84.1572 96° East 445 512 37,000  Level Indianapolis Center
03:27PM 40.3350 -83.9925 96° East 448 516 37,000  Level Indianapolis Center
03:28PM 40.3169 -83.7989 97° East 452 520 37,000  Level Indianapolis Center
03:29PM 40.3033 -83.6339 96° East 451 519 37,000  Level Indianapolis Center
03:30PM 40.2883 -83.4664 97° East 455 524 37,000  Level Indianapolis Center
03:31PM 40.2728 -83.2986 97° East 459 528 37,000  Level Indianapolis Center
03:32PM 40.2578 -83.1308 97° East 457 526 37,000  Level Indianapolis Center
03:33PM 40.2419 -82.9636 97° East 458 527 37,000  Level Indianapolis Center
03:34PM 40.2258 -82.7972 97° East 457 526 37,000  Level Indianapolis Center
03:35PM 40.2081 -82.6325 98° East 454 522 37,000  Level Indianapolis Center
03:36PM 40.1772 -82.4736 104° East 448 516 37,000  Level Indianapolis Center
03:37PM 40.1344 -82.2897 107° East 448 516 37,000  Level Indianapolis Center
03:38PM 40.0978 -82.1333 107° East 448 516 37,000  Level Indianapolis Center
03:39PM 40.0628 -81.9761 106° East 447 514 37,000  Level Indianapolis Center
03:41PM 40.0264 -81.8200 107° East 446 513 37,000  Level Indianapolis Center
03:42PM 39.9908 -81.6669 107° East 447 514 37,000  Level Indianapolis Center
03:43PM 39.9542 -81.5083 107° East 446 513 37,000  Level Indianapolis Center
03:44PM 39.9147 -81.3411 107° East 445 512 37,000  Level Indianapolis Center
03:45PM 39.8781 -81.1847 107° East 449 517 37,000  Level Indianapolis Center
03:46PM 39.8447 -81.0286 105° East 447 514 37,000 -300 Level Indianapolis Center
03:47PM 39.8092 -80.8733 107° East 447 514 36,400 -900 Descending Indianapolis Center
03:48PM 39.7736 -80.7169 106° East 449 517 35,200 -1,260 Descending Indianapolis Center
03:49PM 39.7317 -80.5264 106° East 442 509 33,700 -1,320 Descending Cleveland Center
03:50PM 39.6981 -80.3781 106° East 442 509 32,500 -1,500 Descending Cleveland Center
03:52PM 39.6289 -80.0836 107° East 435 501 29,300 -1,500 Descending Indianapolis Center
03:53PM 39.5942 -79.9247 106° East 440 506 28,000 -1,140 Descending Washington Center
03:54PM 39.5581 -79.7692 107° East 445 512 27,000 -540 Descending Washington Center
03:55PM 39.5214 -79.6164 107° East 445 512 27,000  Level Washington Center
03:56PM 39.4869 -79.4611 106° East 445 512 27,000  Level Washington Center
03:57PM 39.4586 -79.3011 103° East 451 519 27,000 -360 Level Washington Center
03:58PM 39.4306 -79.1275 102° East 451 519 26,300 -2,160 Descending Washington Center
03:59PM 39.4017 -78.9678 103° East 451 519 22,700 -3,060 Descending Washington Center
04:00PM 39.3728 -78.8133 104° East 451 519 20,200 -2,520 Descending Washington Center
04:01PM 39.3431 -78.6669 105° East 444 511 17,700 -3,000 Descending Washington Center
04:02PM 39.3175 -78.5292 103° East 419 482 14,300 -2,940 Descending Washington Center
04:03PM 39.2933 -78.3994 103° East 391 450 11,900 -1,800 Descending Washington Center
04:04PM 39.2500 -78.2906 117° Southeast 360 414 10,700 -960 Descending Washington Center
04:05PM 39.2103 -78.1981 119° Southeast 323 372 10,000 -1,020 Descending Washington Center
04:06PM 39.1725 -78.1136 120° Southeast 293 337 8,700 -1,380 Descending Washington Center
04:07PM 39.1347 -78.0294 120° Southeast 274 315 7,300 -1,260 Descending Washington Center
04:08PM 39.0989 -77.9481 120° Southeast 268 308 6,200 -1,080 Descending Washington Center
04:09PM 39.0689 -77.8775 119° Southeast 257 296 5,200 -900 Descending Washington Center
04:10PM 39.0308 -77.7908 119° Southeast 251 289 4,500 -600 Descending Washington Center
04:11PM 39.0114 -77.7208 110° East 236 272 4,100 -900 Descending Washington Center
04:12PM 38.9833 -77.6167 109° East 181 208 2,500 -1,080 Descending Potomac TRACON
04:13PM 38.9667 -77.5667 113° Southeast 140 161 1,700 -840 Descending Potomac TRACON